Marchand, Pennsylvania
Current Conditions -  °F | °C
As of 3:15 AM on Sunday 21 Dec 2014 (Local Time) from KIDI Reporting Station
Overcast Overcast  
Wind Chill: -3°   Ceiling: 2600
Heat Index: -3°   Visibility: 10mi
Dew Point: -5°   Wind: 0mph
Humidity: 86%   Direction: NA
Pressure: 30.29"   Gusts: NA
Location:  40.86°N, 79.02°W
Report Text: KIDI 210815Z AUTO 00000KT 10SM OVC026 M03/M05 A3029 RMK A01
Loading
Personal Weather Stations






























Interactive Weather Map New forecast layout! Learn more

10-Day Weather Forecast

Advertisements
Track Severe Weather on mobile